Terminal Aerodrome Forecast
Issued by NWS

Home | Current Version | Previous Version | Text Only | Print | Product List | Glossary On
Versions: 1 2 3 4 5 6 7 8 9 10 11 12 13 14 15 16 17 18
000
FTUS43 KTOP 252320
TAFMHK
TAF
KMHK 252320Z 2600/2624 17016G22KT P6SM FEW250
     FM260100 11006KT P6SM BKN150
      TEMPO 2604/2608 4SM TSRA BKN020CB
     FM261100 01006KT P6SM BKN015
     FM261700 01008KT P6SM SCT025 BKN050=

USA.gov is the U.S. government's official web portal to all federal, state and local government web resources and services.